Accueil
METAR-TAF:

METAR-TAF

Aéroports :

Aéroport de Lugano

Lugano, Suisse

latitude: 46-00N, longitude: 008-58E, altitude: 273 m

Observation

Le bulletin a été fait il y a 39 minutes, à 23:20 UTC
Vent 1 kt de direction variable
Température 14°C
Humidité 77%
Pression 1028 hPa
Visibilité 10 km ou plus
pas de nuages en-dessous de 1500 mètres et pas de cumulonimbus.

METAR: LSZA 272320Z AUTO VRB01KT CAVOK 14/10 Q1028

Heure: 01:59 (23:59 UTC)

Prévision

Le bulletin a été fait il y a 9 heures et 34 minutes, à 14:25 UTC
Prévision valable du 27 à 15 UTC au 27 à 24 UTC
Vent 6 kt de sud/sud-ouest
Visibilité 10 km ou plus
Quelques nuages à une hauteur de 7000 ft
Evoluant progressivement
du 27 à 16 UTC au 27 à 18 UTC
Visibilité 10 km ou plus
pas de nuages en-dessous de 1500 mètres et pas de cumulonimbus.

TAF: LSZA 271425Z 2715/2724 20006KT 9999 FEW070 BECMG 2716/2718 CAVOK

Observations et prévisions météorologiques de plus de 4000 aéroports (messages METAR et TAF).

Les stations disponibles sont représentées par des disques jaunes et rouges sur la carte.

Passer la souris dessus pour voir le nom de la station.

Cliquer dessus pour voir les observations et prévisions météorologiques.

Pour changer de carte: cliquez sur les boutons verts avec une croix noire pour zoomer, sur le bouton vert avec un tiret pour effectuer un zoom arrière, ou sur les flèches vertes pour les cartes adjacentes.


METAR-TAF: